Time;durP1;ratioP1;P1;durP2;ratioP2;P2;SDS_P1;SDS_P2;PMS_P1;PMS_P2;Temp;Humidity;BMP_temperature;BMP_pressure;BME280_temperature;BME280_humidity;BME280_pressure;Samples;Min_cycle;Max_cycle;Signal;HPM_P1;HPM_P2
2022/02/22 00:01:54;;;;;;;;;;;8.10;99.90;;;;;;5095002;28;19908;-78
2022/02/22 00:04:20;;;;;;;;;;;8.10;99.90;;;;;;5095105;28;19908;-79
2022/02/22 00:06:45;;;;;;;;;;;8.10;99.90;;;;;;5094806;28;19912;-79
2022/02/22 00:09:11;;;;;;;;;;;8.10;99.90;;;;;;5095323;28;19908;-79
2022/02/22 00:11:37;;;;;;;;;;;8.00;99.90;;;;;;5094852;28;19908;-78
2022/02/22 00:14:02;;;;;;;;;;;8.00;99.90;;;;;;5094919;28;19977;-79
2022/02/22 00:16:28;;;;;;;;;;;8.10;99.90;;;;;;5076396;28;19924;-79
2022/02/22 00:18:54;;;;;;;;;;;8.10;99.90;;;;;;5076491;28;20368;-79
2022/02/22 00:21:19;;;;;;;;;;;8.10;99.90;;;;;;5093937;28;19908;-78
2022/02/22 00:23:45;;;;;;;;;;;8.00;99.90;;;;;;5094625;28;19914;-78
2022/02/22 00:26:10;;;;;;;;;;;8.00;99.90;;;;;;5076286;28;19999;-79
2022/02/22 00:28:36;;;;;;;;;;;8.00;99.90;;;;;;5094521;28;19989;-79
2022/02/22 00:31:02;;;;;;;;;;;7.90;99.90;;;;;;5094619;28;19908;-79
2022/02/22 00:33:30;;;;;;;;;;;8.00;99.90;;;;;;5094444;28;19908;-78
2022/02/22 00:35:56;;;;;;;;;;;7.90;99.90;;;;;;5094371;28;19912;-79
2022/02/22 00:38:22;;;;;;;;;;;7.80;99.90;;;;;;5076161;28;19973;-78
2022/02/22 00:40:48;;;;;;;;;;;7.90;99.90;;;;;;5094653;28;19931;-77
2022/02/22 00:43:14;;;;;;;;;;;7.90;99.90;;;;;;5094329;28;20368;-79
2022/02/22 00:45:39;;;;;;;;;;;7.90;99.90;;;;;;5094297;28;19912;-79
2022/02/22 00:48:05;;;;;;;;;;;7.90;99.90;;;;;;5094110;28;19912;-78
2022/02/22 00:50:32;;;;;;;;;;;8.00;99.90;;;;;;5094582;28;19908;-79
2022/02/22 00:52:58;;;;;;;;;;;7.90;99.90;;;;;;5094049;28;19912;-80
2022/02/22 00:55:24;;;;;;;;;;;8.00;99.90;;;;;;5094040;28;19957;-79
2022/02/22 00:57:50;;;;;;;;;;;8.00;99.90;;;;;;5094079;28;20295;-79
2022/02/22 01:00:16;;;;;;;;;;;7.90;99.90;;;;;;5094458;28;19914;-78
2022/02/22 01:02:41;;;;;;;;;;;7.90;99.90;;;;;;5094262;28;19908;-79
2022/02/22 01:05:07;;;;;;;;;;;8.00;99.90;;;;;;5093947;28;19909;-78
2022/02/22 01:07:33;;;;;;;;;;;8.00;99.90;;;;;;5093818;28;19912;-78
2022/02/22 01:09:59;;;;;;;;;;;8.00;99.90;;;;;;5093870;28;19912;-78
2022/02/22 01:12:24;;;;;;;;;;;8.00;99.90;;;;;;5093844;28;19908;-79
2022/02/22 01:14:50;;;;;;;;;;;8.00;99.90;;;;;;5075643;28;19913;-78
2022/02/22 01:17:15;;;;;;;;;;;8.10;99.90;;;;;;5093395;28;20388;-79
2022/02/22 01:19:41;;;;;;;;;;;8.00;99.90;;;;;;5093885;28;19916;-79
2022/02/22 01:22:06;;;;;;;;;;;8.00;99.90;;;;;;5093729;28;19957;-79
2022/02/22 01:24:32;;;;;;;;;;;8.00;99.90;;;;;;5093884;28;20292;-79
2022/02/22 01:26:58;;;;;;;;;;;8.20;99.90;;;;;;5075500;28;19916;-78
2022/02/22 01:29:26;;;;;;;;;;;8.30;99.90;;;;;;5093747;28;19915;-79
2022/02/22 01:31:51;;;;;;;;;;;8.50;99.90;;;;;;5075502;28;19961;-79
2022/02/22 01:34:17;;;;;;;;;;;8.50;99.90;;;;;;5098154;28;19912;-78
2022/02/22 01:36:45;;;;;;;;;;;8.50;99.90;;;;;;5098025;28;19909;-79
2022/02/22 01:39:11;;;;;;;;;;;8.60;99.90;;;;;;5097772;28;19908;-79
2022/02/22 01:41:44;;;;;;;;;;;8.80;99.90;;;;;;5097749;28;19908;-79
2022/02/22 01:44:10;;;;;;;;;;;8.70;99.90;;;;;;5098127;28;19958;-79
2022/02/22 01:46:35;;;;;;;;;;;8.80;99.90;;;;;;5097583;28;19916;-79
2022/02/22 01:49:01;;;;;;;;;;;8.80;99.90;;;;;;5097620;28;19912;-79
2022/02/22 01:51:27;;;;;;;;;;;8.90;99.90;;;;;;5097600;28;19915;-80
2022/02/22 01:53:52;;;;;;;;;;;9.10;99.90;;;;;;5097644;28;19908;-79
2022/02/22 01:56:18;;;;;;;;;;;9.20;99.90;;;;;;5097450;28;20003;-78
2022/02/22 01:58:44;;;;;;;;;;;9.10;99.90;;;;;;5097393;28;19990;-78
2022/02/22 02:01:09;;;;;;;;;;;9.00;99.90;;;;;;5096912;28;19914;-79
2022/02/22 02:03:35;;;;;;;;;;;9.00;99.90;;;;;;5097274;28;20011;-79
2022/02/22 02:06:01;;;;;;;;;;;8.90;99.90;;;;;;5097192;28;19908;-79
2022/02/22 02:08:27;;;;;;;;;;;8.90;99.90;;;;;;5097510;28;20003;-80
2022/02/22 02:10:53;;;;;;;;;;;9.00;99.90;;;;;;5097149;28;19930;-79
2022/02/22 02:13:18;;;;;;;;;;;9.10;99.90;;;;;;5097107;28;20426;-79
2022/02/22 02:15:44;;;;;;;;;;;9.10;99.90;;;;;;5096950;28;19942;-79
2022/02/22 02:18:09;;;;;;;;;;;8.90;99.90;;;;;;5078875;28;19915;-79
2022/02/22 02:20:35;;;;;;;;;;;8.80;99.90;;;;;;5097332;28;20411;-78
2022/02/22 02:23:00;;;;;;;;;;;8.80;99.90;;;;;;5097006;28;19908;-78
2022/02/22 02:25:26;;;;;;;;;;;8.80;99.90;;;;;;5096951;28;19908;-78
2022/02/22 02:27:52;;;;;;;;;;;8.80;99.90;;;;;;5078660;28;19912;-80
2022/02/22 02:30:17;;;;;;;;;;;8.70;99.90;;;;;;5097040;28;19908;-79
2022/02/22 02:32:43;;;;;;;;;;;8.80;99.90;;;;;;5096870;28;19908;-79
2022/02/22 02:35:09;;;;;;;;;;;8.80;99.90;;;;;;5096756;28;20368;-79
2022/02/22 02:37:35;;;;;;;;;;;8.90;99.90;;;;;;5096722;28;19908;-78
2022/02/22 02:40:03;;;;;;;;;;;8.80;99.90;;;;;;5096763;28;19908;-79
2022/02/22 02:42:29;;;;;;;;;;;8.90;99.90;;;;;;5096812;28;20303;-78
2022/02/22 02:44:54;;;;;;;;;;;8.90;99.90;;;;;;5096129;28;19908;-79
2022/02/22 02:47:20;;;;;;;;;;;9.00;99.90;;;;;;5096481;28;19969;-79
2022/02/22 02:49:45;;;;;;;;;;;9.10;99.90;;;;;;5096475;28;19914;-79
2022/02/22 02:52:11;;;;;;;;;;;9.10;99.90;;;;;;5078168;28;20364;-80
2022/02/22 02:54:37;;;;;;;;;;;9.10;99.90;;;;;;5096298;28;19954;-80
2022/02/22 02:57:03;;;;;;;;;;;9.20;99.90;;;;;;5096450;28;19908;-79
2022/02/22 02:59:29;;;;;;;;;;;9.20;99.90;;;;;;5078201;28;19916;-78
2022/02/22 03:01:54;;;;;;;;;;;9.30;99.90;;;;;;5096295;28;19908;-79
2022/02/22 03:04:20;;;;;;;;;;;9.30;99.90;;;;;;5096185;28;19915;-79
2022/02/22 03:06:46;;;;;;;;;;;9.40;99.90;;;;;;5096092;28;19920;-78
2022/02/22 03:09:12;;;;;;;;;;;9.40;99.90;;;;;;5096278;28;20419;-79
2022/02/22 03:11:38;;;;;;;;;;;9.40;99.90;;;;;;5096077;28;19997;-79
2022/02/22 03:14:04;;;;;;;;;;;9.40;99.90;;;;;;5096054;28;20000;-79
2022/02/22 03:16:29;;;;;;;;;;;9.40;99.90;;;;;;5095815;28;20112;-79
2022/02/22 03:18:55;;;;;;;;;;;9.50;99.90;;;;;;5095865;28;19951;-79
2022/02/22 03:21:21;;;;;;;;;;;9.50;99.90;;;;;;5077720;28;19998;-77
2022/02/22 03:23:46;;;;;;;;;;;9.50;99.90;;;;;;5095831;28;19908;-79
2022/02/22 03:26:12;;;;;;;;;;;9.50;99.90;;;;;;5095789;28;19961;-79
2022/02/22 03:28:37;;;;;;;;;;;9.60;99.90;;;;;;5077546;28;19915;-79
2022/02/22 03:31:03;;;;;;;;;;;9.50;99.90;;;;;;5095703;28;19915;-79
2022/02/22 03:33:30;;;;;;;;;;;9.60;99.90;;;;;;5096288;28;19919;-78
2022/02/22 03:35:55;;;;;;;;;;;9.60;99.90;;;;;;5095581;28;19958;-79
2022/02/22 03:38:21;;;;;;;;;;;9.60;99.90;;;;;;5077035;28;19908;-78
2022/02/22 03:40:46;;;;;;;;;;;9.60;99.90;;;;;;5095186;28;19908;-79
2022/02/22 03:43:12;;;;;;;;;;;9.60;99.90;;;;;;5095424;28;19971;-78
2022/02/22 03:45:37;;;;;;;;;;;9.60;99.90;;;;;;5095389;28;19912;-79
2022/02/22 03:48:03;;;;;;;;;;;9.60;99.90;;;;;;5095278;28;19913;-79
2022/02/22 03:50:29;;;;;;;;;;;9.70;99.90;;;;;;5095249;28;19919;-79
2022/02/22 03:52:54;;;;;;;;;;;9.70;99.90;;;;;;5095146;28;19908;-79
2022/02/22 03:55:22;;;;;;;;;;;9.70;99.90;;;;;;5094791;28;20280;-79
2022/02/22 03:57:47;;;;;;;;;;;9.70;99.90;;;;;;5076396;28;19943;-79
2022/02/22 04:00:14;;;;;;;;;;;9.70;99.90;;;;;;5095107;28;20323;-79
2022/02/22 04:02:40;;;;;;;;;;;9.70;99.90;;;;;;5095025;28;19912;-79
2022/02/22 04:05:06;;;;;;;;;;;9.70;99.90;;;;;;5095085;28;19908;-78
2022/02/22 04:07:32;;;;;;;;;;;9.70;99.90;;;;;;5094935;28;19912;-80
2022/02/22 04:09:58;;;;;;;;;;;9.70;99.90;;;;;;5094982;28;19916;-79
2022/02/22 04:12:24;;;;;;;;;;;9.70;99.90;;;;;;5095231;28;19908;-79
2022/02/22 04:14:49;;;;;;;;;;;9.70;99.90;;;;;;5094856;28;19908;-79
2022/02/22 04:17:15;;;;;;;;;;;9.70;99.90;;;;;;5094429;28;19976;-79
2022/02/22 04:19:41;;;;;;;;;;;9.80;99.90;;;;;;5094782;28;19919;-79
2022/02/22 04:22:06;;;;;;;;;;;9.80;99.90;;;;;;5076523;28;19999;-79
2022/02/22 04:24:32;;;;;;;;;;;9.70;99.90;;;;;;5094677;28;20288;-78
2022/02/22 04:26:57;;;;;;;;;;;9.80;99.90;;;;;;5094810;28;19919;-78
2022/02/22 04:29:23;;;;;;;;;;;9.80;99.90;;;;;;5094699;28;19974;-79
2022/02/22 04:31:49;;;;;;;;;;;9.70;99.90;;;;;;5095000;28;20376;-79
2022/02/22 04:34:15;;;;;;;;;;;9.80;99.90;;;;;;5094705;28;19912;-79
2022/02/22 04:36:40;;;;;;;;;;;9.80;99.90;;;;;;5094431;28;20390;-78
2022/02/22 04:39:06;;;;;;;;;;;9.80;99.90;;;;;;5094555;28;19908;-79
2022/02/22 04:41:32;;;;;;;;;;;9.80;99.90;;;;;;5094582;28;20440;-79
2022/02/22 04:43:58;;;;;;;;;;;9.80;99.90;;;;;;5094409;28;20323;-78
2022/02/22 04:46:23;;;;;;;;;;;9.70;99.90;;;;;;5094182;28;19912;-79
2022/02/22 04:48:49;;;;;;;;;;;9.80;99.90;;;;;;5076086;28;19919;-78
2022/02/22 04:51:15;;;;;;;;;;;9.80;99.90;;;;;;5094190;28;20407;-78
2022/02/22 04:53:40;;;;;;;;;;;9.80;99.90;;;;;;5075963;28;20292;-79
2022/02/22 04:56:06;;;;;;;;;;;9.80;99.90;;;;;;5094142;28;19908;-79
2022/02/22 04:58:32;;;;;;;;;;;9.80;99.90;;;;;;5094544;28;19908;-78
2022/02/22 05:00:57;;;;;;;;;;;9.80;99.90;;;;;;5094369;28;19991;-79
2022/02/22 05:03:23;;;;;;;;;;;9.80;99.90;;;;;;5094265;28;20380;-78
2022/02/22 05:05:55;;;;;;;;;;;9.80;99.90;;;;;;5094158;28;19962;-78
2022/02/22 05:08:20;;;;;;;;;;;9.80;99.90;;;;;;5093630;28;19912;-79
2022/02/22 05:10:46;;;;;;;;;;;9.90;99.90;;;;;;5093954;28;20418;-79
2022/02/22 05:13:12;;;;;;;;;;;9.90;99.90;;;;;;5094016;28;20257;-79
2022/02/22 05:15:37;;;;;;;;;;;9.90;99.90;;;;;;5093852;28;19973;-78
2022/02/22 05:18:05;;;;;;;;;;;9.80;99.90;;;;;;5075568;28;20202;-79
2022/02/22 05:20:31;;;;;;;;;;;9.70;99.90;;;;;;5093990;28;19934;-78
2022/02/22 05:22:57;;;;;;;;;;;9.70;99.90;;;;;;5093805;28;19958;-79
2022/02/22 05:25:23;;;;;;;;;;;9.70;99.90;;;;;;5093763;28;19909;-79
2022/02/22 05:27:48;;;;;;;;;;;9.80;99.90;;;;;;5093678;28;19916;-79
2022/02/22 05:30:16;;;;;;;;;;;9.80;99.90;;;;;;5093716;28;19972;-79
2022/02/22 05:32:41;;;;;;;;;;;9.70;99.90;;;;;;5075624;28;19908;-78
2022/02/22 05:35:08;;;;;;;;;;;9.70;99.90;;;;;;5093658;28;19961;-79
2022/02/22 05:37:34;;;;;;;;;;;9.80;99.90;;;;;;5093734;28;20003;-79
2022/02/22 05:40:00;;;;;;;;;;;9.80;99.90;;;;;;5093623;28;19908;-79
2022/02/22 05:42:26;;;;;;;;;;;9.70;99.90;;;;;;5093654;28;19946;-79
2022/02/22 05:44:52;;;;;;;;;;;9.70;99.90;;;;;;5093890;28;19969;-78
2022/02/22 05:47:17;;;;;;;;;;;9.70;99.90;;;;;;5093567;28;19913;-78
2022/02/22 05:49:43;;;;;;;;;;;9.70;99.90;;;;;;5093526;28;19912;-79
2022/02/22 05:52:10;;;;;;;;;;;9.80;99.90;;;;;;5093515;28;19955;-78
2022/02/22 05:54:36;;;;;;;;;;;9.80;99.90;;;;;;5093427;28;19991;-79
2022/02/22 05:57:02;;;;;;;;;;;9.70;99.90;;;;;;5075351;28;19908;-78
2022/02/22 05:59:27;;;;;;;;;;;9.70;99.90;;;;;;5093476;28;20433;-80
2022/02/22 06:01:53;;;;;;;;;;;9.70;99.90;;;;;;5075265;28;19994;-78
2022/02/22 06:04:18;;;;;;;;;;;9.70;99.90;;;;;;5075273;28;19919;-79
2022/02/22 06:06:44;;;;;;;;;;;9.70;99.90;;;;;;5093615;28;19912;-78
2022/02/22 06:09:10;;;;;;;;;;;9.70;99.90;;;;;;5075272;28;19908;-79
2022/02/22 06:11:35;;;;;;;;;;;9.70;99.90;;;;;;5093356;28;19915;-79
2022/02/22 06:14:01;;;;;;;;;;;9.90;99.90;;;;;;5093288;28;20011;-79
2022/02/22 06:16:28;;;;;;;;;;;9.90;99.90;;;;;;5093458;28;19920;-79
2022/02/22 06:18:53;;;;;;;;;;;9.90;99.90;;;;;;5093643;28;19958;-79
2022/02/22 06:21:19;;;;;;;;;;;9.90;99.90;;;;;;5097157;28;19999;-79
2022/02/22 06:23:45;;;;;;;;;;;10.00;99.90;;;;;;5096996;28;19908;-78
2022/02/22 06:26:10;;;;;;;;;;;10.00;99.90;;;;;;5097029;28;19915;-79
2022/02/22 06:28:36;;;;;;;;;;;10.00;99.90;;;;;;5096914;28;20438;-79
2022/02/22 06:31:01;;;;;;;;;;;10.10;99.90;;;;;;5097042;28;19915;-78
2022/02/22 06:33:27;;;;;;;;;;;10.10;99.90;;;;;;5096956;28;19908;-79
2022/02/22 06:35:52;;;;;;;;;;;10.10;99.90;;;;;;5096760;28;19954;-79
2022/02/22 06:38:18;;;;;;;;;;;10.10;99.90;;;;;;5097156;28;19971;-78
2022/02/22 06:40:44;;;;;;;;;;;10.10;99.90;;;;;;5097053;28;19912;-79
2022/02/22 06:43:10;;;;;;;;;;;10.20;99.90;;;;;;5096613;28;19908;-78
2022/02/22 06:45:36;;;;;;;;;;;10.20;99.90;;;;;;5096558;28;19908;-78
2022/02/22 06:48:01;;;;;;;;;;;10.30;99.90;;;;;;5096411;28;19951;-79
2022/02/22 06:50:27;;;;;;;;;;;10.30;99.90;;;;;;5096475;28;20021;-79
2022/02/22 06:52:52;;;;;;;;;;;10.30;99.90;;;;;;5096375;28;20360;-79
2022/02/22 06:55:18;;;;;;;;;;;10.30;99.90;;;;;;5096358;28;19962;-78
2022/02/22 06:57:50;;;;;;;;;;;10.20;99.90;;;;;;5096361;28;19930;-78
2022/02/22 07:00:18;;;;;;;;;;;10.30;99.90;;;;;;5096480;28;19963;-78
2022/02/22 07:02:44;;;;;;;;;;;10.20;99.90;;;;;;5096198;28;19908;-78
2022/02/22 07:05:09;;;;;;;;;;;10.20;99.90;;;;;;5096112;28;20388;-78
2022/02/22 07:07:35;;;;;;;;;;;10.20;99.90;;;;;;5096052;28;19912;-79
2022/02/22 07:10:01;;;;;;;;;;;10.20;99.90;;;;;;5077929;28;20342;-79
2022/02/22 07:12:27;;;;;;;;;;;10.20;99.90;;;;;;5096023;28;19954;-79
2022/02/22 07:14:53;;;;;;;;;;;10.30;99.90;;;;;;5096358;28;19908;-78
2022/02/22 07:17:18;;;;;;;;;;;10.30;99.90;;;;;;5095532;28;19963;-79
2022/02/22 07:19:45;;;;;;;;;;;10.30;99.90;;;;;;5077740;28;20291;-79
2022/02/22 07:22:10;;;;;;;;;;;10.30;99.90;;;;;;5095880;28;19908;-79
2022/02/22 07:24:36;;;;;;;;;;;10.40;99.90;;;;;;5095804;28;19931;-78
2022/02/22 07:27:02;;;;;;;;;;;10.40;99.90;;;;;;5077465;28;19951;-78
2022/02/22 07:29:28;;;;;;;;;;;10.40;99.90;;;;;;5095767;28;19915;-79
2022/02/22 07:31:54;;;;;;;;;;;10.40;99.90;;;;;;5077322;28;19908;-79
2022/02/22 07:34:19;;;;;;;;;;;10.50;99.90;;;;;;5095827;28;19955;-78
2022/02/22 07:36:45;;;;;;;;;;;10.50;99.90;;;;;;5095754;28;20384;-79
2022/02/22 07:39:11;;;;;;;;;;;10.50;99.90;;;;;;5095786;28;19962;-79
2022/02/22 07:41:36;;;;;;;;;;;10.50;99.90;;;;;;5095487;28;20280;-79
2022/02/22 07:44:03;;;;;;;;;;;10.60;99.90;;;;;;5095909;28;19969;-79
2022/02/22 07:46:29;;;;;;;;;;;10.60;99.90;;;;;;5095195;28;20031;-78
2022/02/22 07:48:54;;;;;;;;;;;10.70;99.90;;;;;;5095337;28;20377;-79
2022/02/22 07:51:20;;;;;;;;;;;10.70;99.90;;;;;;5095350;28;20364;-79
2022/02/22 07:53:46;;;;;;;;;;;10.70;99.90;;;;;;5095130;28;19969;-79
2022/02/22 07:56:12;;;;;;;;;;;10.80;99.90;;;;;;5095177;28;19943;-79
2022/02/22 07:58:38;;;;;;;;;;;10.90;99.90;;;;;;5095204;28;19908;-79
2022/02/22 08:01:04;;;;;;;;;;;10.80;99.90;;;;;;5095135;28;19933;-79
2022/02/22 08:03:29;;;;;;;;;;;10.90;99.90;;;;;;5094940;28;19998;-78
2022/02/22 08:05:55;;;;;;;;;;;10.90;99.90;;;;;;5094972;28;20305;-78
2022/02/22 08:08:22;;;;;;;;;;;10.90;99.90;;;;;;5095039;28;19918;-78
2022/02/22 08:10:48;;;;;;;;;;;10.90;99.90;;;;;;5076774;28;19999;-79
2022/02/22 08:13:15;;;;;;;;;;;11.00;99.90;;;;;;5094815;28;19961;-79
2022/02/22 08:15:41;;;;;;;;;;;11.00;99.90;;;;;;5094677;28;19920;-79
2022/02/22 08:18:07;;;;;;;;;;;11.10;99.90;;;;;;5076456;28;19912;-78
2022/02/22 08:20:32;;;;;;;;;;;11.20;99.90;;;;;;5094756;28;19915;-78
2022/02/22 08:22:59;;;;;;;;;;;11.30;99.90;;;;;;5076555;28;19909;-79
2022/02/22 08:25:25;;;;;;;;;;;11.30;99.90;;;;;;5094680;28;19973;-79
2022/02/22 08:27:50;;;;;;;;;;;11.40;99.90;;;;;;5077192;28;20364;-78
2022/02/22 08:30:16;;;;;;;;;;;11.40;99.90;;;;;;5094612;28;19943;-78
2022/02/22 08:32:41;;;;;;;;;;;11.50;99.90;;;;;;5094557;28;20370;-79
2022/02/22 08:35:07;;;;;;;;;;;11.50;99.90;;;;;;5094439;28;20399;-78
2022/02/22 08:37:33;;;;;;;;;;;11.50;99.90;;;;;;5076209;28;19908;-78
2022/02/22 08:39:58;;;;;;;;;;;11.60;99.90;;;;;;5094672;28;20130;-79
2022/02/22 08:42:24;;;;;;;;;;;11.70;99.90;;;;;;5093745;28;19915;-78
2022/02/22 08:44:50;;;;;;;;;;;11.80;99.90;;;;;;5094313;28;19914;-78
2022/02/22 08:47:15;;;;;;;;;;;11.70;99.90;;;;;;5094456;28;19955;-78
2022/02/22 08:49:42;;;;;;;;;;;11.80;99.90;;;;;;5094112;28;19908;-78
2022/02/22 08:52:07;;;;;;;;;;;11.80;99.90;;;;;;5094177;28;20283;-78
2022/02/22 08:54:33;;;;;;;;;;;11.80;99.90;;;;;;5094077;28;20003;-78
2022/02/22 08:56:58;;;;;;;;;;;11.90;99.90;;;;;;5094314;28;19970;-78
2022/02/22 08:59:24;;;;;;;;;;;11.90;99.90;;;;;;5094446;28;19915;-78
2022/02/22 09:01:49;;;;;;;;;;;11.90;99.90;;;;;;5093724;28;19914;-78
2022/02/22 09:04:15;;;;;;;;;;;12.00;99.90;;;;;;5075587;28;20396;-78
2022/02/22 09:06:41;;;;;;;;;;;12.10;99.90;;;;;;5075796;28;19919;-79
2022/02/22 09:09:06;;;;;;;;;;;12.10;99.90;;;;;;5094275;28;19908;-78
2022/02/22 09:11:32;;;;;;;;;;;12.10;99.90;;;;;;5093897;28;19961;-78
2022/02/22 09:13:57;;;;;;;;;;;12.20;99.90;;;;;;5093833;28;19916;-78
2022/02/22 09:16:23;;;;;;;;;;;12.30;99.90;;;;;;5093659;28;20007;-78
2022/02/22 09:18:48;;;;;;;;;;;12.40;99.90;;;;;;5093816;28;19919;-78
2022/02/22 09:21:14;;;;;;;;;;;12.40;99.90;;;;;;5093780;28;19943;-78
2022/02/22 09:23:40;;;;;;;;;;;12.50;99.90;;;;;;5093785;28;19916;-77
2022/02/22 09:26:05;;;;;;;;;;;12.60;99.90;;;;;;5093841;28;20342;-78
2022/02/22 09:28:31;;;;;;;;;;;12.60;99.90;;;;;;5093887;28;19930;-78
2022/02/22 09:30:56;;;;;;;;;;;12.70;99.90;;;;;;5093705;28;19909;-80
2022/02/22 09:33:22;;;;;;;;;;;12.70;99.90;;;;;;5093678;28;19914;-77
2022/02/22 09:35:48;;;;;;;;;;;12.80;99.90;;;;;;5094013;28;19908;-78
2022/02/22 09:38:14;;;;;;;;;;;12.90;99.90;;;;;;5093637;28;19912;-79
2022/02/22 09:40:40;;;;;;;;;;;12.90;99.90;;;;;;5093670;28;19912;-78
2022/02/22 09:43:05;;;;;;;;;;;13.00;99.90;;;;;;5093606;28;19916;-78
2022/02/22 09:45:31;;;;;;;;;;;13.10;99.90;;;;;;5093615;28;19908;-78
2022/02/22 09:48:01;;;;;;;;;;;13.10;99.90;;;;;;5093855;28;19961;-78
2022/02/22 09:50:27;;;;;;;;;;;13.00;99.90;;;;;;5093629;28;19915;-78
2022/02/22 09:52:53;;;;;;;;;;;12.90;99.90;;;;;;5075321;28;20312;-78
2022/02/22 09:55:19;;;;;;;;;;;12.80;99.90;;;;;;5097757;28;19966;-78
2022/02/22 09:57:45;;;;;;;;;;;12.70;99.90;;;;;;5097530;28;19995;-78
2022/02/22 10:00:20;;;;;;;;;;;12.70;99.90;;;;;;5097488;28;19912;-78
2022/02/22 10:02:47;;;;;;;;;;;12.70;99.90;;;;;;5079220;28;19908;-77
2022/02/22 10:05:23;;;;;;;;;;;12.80;99.90;;;;;;5097396;28;19908;-78
2022/02/22 10:08:04;;;;;;;;;;;13.00;99.90;;;;;;5097500;28;19923;-79
2022/02/22 10:10:37;;;;;;;;;;;13.10;99.90;;;;;;5097286;28;19912;-78
2022/02/22 10:13:04;;;;;;;;;;;13.30;99.90;;;;;;5097256;28;20000;-78
2022/02/22 10:15:35;;;;;;;;;;;13.20;99.90;;;;;;5097240;28;19935;-78
2022/02/22 10:18:00;;;;;;;;;;;13.20;99.90;;;;;;5097387;28;19947;-78
2022/02/22 10:20:26;;;;;;;;;;;13.30;99.90;;;;;;5097099;28;19909;-77
2022/02/22 10:22:53;;;;;;;;;;;13.20;99.90;;;;;;5097015;28;19969;-78
2022/02/22 10:25:20;;;;;;;;;;;13.20;99.90;;;;;;5096979;28;19912;-78
2022/02/22 10:27:49;;;;;;;;;;;13.40;99.90;;;;;;5096905;28;19912;-78
2022/02/22 10:30:29;;;;;;;;;;;13.60;99.90;;;;;;5096892;28;20392;-78
2022/02/22 10:32:55;;;;;;;;;;;13.70;99.90;;;;;;5096918;28;20362;-78
2022/02/22 10:35:27;;;;;;;;;;;13.80;99.90;;;;;;5078639;28;20291;-78
2022/02/22 10:37:53;;;;;;;;;;;14.10;99.90;;;;;;5096776;28;19908;-78
2022/02/22 10:40:31;;;;;;;;;;;14.80;99.90;;;;;;5096709;28;19999;-78
2022/02/22 10:42:57;;;;;;;;;;;16.40;99.90;;;;;;5096816;28;19912;-78
2022/02/22 10:45:23;;;;;;;;;;;17.70;99.90;;;;;;5096688;28;19954;-79
2022/02/22 10:47:49;;;;;;;;;;;18.10;99.90;;;;;;5078309;28;20368;-79
2022/02/22 10:50:16;;;;;;;;;;;17.40;99.90;;;;;;5097086;28;19912;-78
2022/02/22 10:52:42;;;;;;;;;;;17.40;99.90;;;;;;5096682;28;19954;-78
2022/02/22 10:55:08;;;;;;;;;;;18.30;99.90;;;;;;5096462;28;19912;-79
2022/02/22 10:57:34;;;;;;;;;;;17.70;99.90;;;;;;5096351;28;19915;-79
2022/02/22 11:00:00;;;;;;;;;;;17.10;99.90;;;;;;5096311;28;19908;-79
2022/02/22 11:02:26;;;;;;;;;;;17.00;99.90;;;;;;5096288;28;19908;-78
2022/02/22 11:04:55;;;;;;;;;;;16.30;99.90;;;;;;5095686;28;19915;-78
2022/02/22 11:07:23;;;;;;;;;;;15.50;99.90;;;;;;5096082;28;19912;-79
2022/02/22 11:09:49;;;;;;;;;;;15.50;99.90;;;;;;5096183;28;20296;-79
2022/02/22 11:12:25;;;;;;;;;;;15.50;99.90;;;;;;5096059;28;20011;-78
2022/02/22 11:15:02;;;;;;;;;;;15.50;99.90;;;;;;5096367;28;19909;-79
2022/02/22 11:17:28;;;;;;;;;;;16.70;99.90;;;;;;5095661;28;19963;-78
2022/02/22 11:19:56;;;;;;;;;;;16.80;99.90;;;;;;5096004;28;20334;-79
2022/02/22 11:22:23;;;;;;;;;;;16.70;99.90;;;;;;5077760;28;19954;-78
2022/02/22 11:24:50;;;;;;;;;;;17.90;99.90;;;;;;5095863;28;19947;-80
2022/02/22 11:27:32;;;;;;;;;;;16.80;99.90;;;;;;5096295;28;19919;-78
2022/02/22 11:30:07;;;;;;;;;;;16.10;99.90;;;;;;5095789;28;19915;-79
2022/02/22 11:32:33;;;;;;;;;;;15.70;99.90;;;;;;5095690;28;19978;-79
2022/02/22 11:35:08;;;;;;;;;;;15.60;99.90;;;;;;5095856;28;19912;-80
2022/02/22 11:37:33;;;;;;;;;;;15.60;99.90;;;;;;5095906;28;20015;-79
2022/02/22 11:39:59;;;;;;;;;;;15.50;99.90;;;;;;5095563;28;20014;-78
2022/02/22 11:42:30;;;;;;;;;;;15.30;99.90;;;;;;5095520;28;19908;-78
2022/02/22 11:45:09;;;;;;;;;;;15.20;99.90;;;;;;5077038;28;19909;-79
2022/02/22 11:47:35;;;;;;;;;;;14.90;99.90;;;;;;5095354;28;20364;-78
2022/02/22 11:50:09;;;;;;;;;;;14.80;99.90;;;;;;5095412;28;20391;-79
2022/02/22 11:52:36;;;;;;;;;;;14.70;99.90;;;;;;5095642;28;19947;-79
2022/02/22 11:55:03;;;;;;;;;;;14.90;99.90;;;;;;5092988;28;19908;-78
2022/02/22 11:57:29;;;;;;;;;;;14.90;99.90;;;;;;5061781;28;19957;-78
2022/02/22 12:00:03;;;;;;;;;;;14.70;99.90;;;;;;5062401;28;19999;-79
2022/02/22 12:02:30;;;;;;;;;;;14.90;99.90;;;;;;5085559;28;19915;-79
2022/02/22 12:04:56;;;;;;;;;;;14.80;99.90;;;;;;5082902;28;19908;-79
2022/02/22 12:07:29;;;;;;;;;;;14.90;99.90;;;;;;5084415;28;20011;-79
2022/02/22 12:09:56;;;;;;;;;;;14.50;99.90;;;;;;5065450;28;19947;-78
2022/02/22 12:12:23;;;;;;;;;;;14.50;99.90;;;;;;5087312;28;20268;-79
2022/02/22 12:14:52;;;;;;;;;;;14.30;99.90;;;;;;5085274;28;19915;-78
2022/02/22 12:17:18;;;;;;;;;;;14.20;99.90;;;;;;5081484;28;19920;-78
2022/02/22 12:19:52;;;;;;;;;;;14.30;99.90;;;;;;5066586;28;19943;-77
2022/02/22 12:22:18;;;;;;;;;;;14.20;99.90;;;;;;5076227;28;19916;-78
2022/02/22 12:24:44;;;;;;;;;;;14.30;99.90;;;;;;5079251;28;19948;-79
2022/02/22 12:27:13;;;;;;;;;;;14.30;99.90;;;;;;5077717;28;20385;-78
2022/02/22 12:29:40;;;;;;;;;;;14.50;99.90;;;;;;5084964;28;19912;-78
2022/02/22 12:32:06;;;;;;;;;;;14.60;99.90;;;;;;5082400;28;19909;-78
2022/02/22 12:34:31;;;;;;;;;;;14.50;99.90;;;;;;5084365;28;20276;-79
2022/02/22 12:36:59;;;;;;;;;;;14.40;99.90;;;;;;5079695;28;19916;-79
2022/02/22 12:39:26;;;;;;;;;;;14.40;99.90;;;;;;5074353;28;19909;-79
2022/02/22 12:41:53;;;;;;;;;;;14.30;99.90;;;;;;5074210;28;19915;-79
2022/02/22 12:44:19;;;;;;;;;;;14.40;99.90;;;;;;5074123;28;20330;-79
2022/02/22 12:46:47;;;;;;;;;;;14.20;99.90;;;;;;5073987;28;19913;-77
2022/02/22 12:49:13;;;;;;;;;;;14.30;99.90;;;;;;5074131;28;19970;-79
2022/02/22 12:51:41;;;;;;;;;;;14.80;99.90;;;;;;5074085;28;19915;-78
2022/02/22 12:54:08;;;;;;;;;;;15.50;99.90;;;;;;5055983;28;19959;-79
2022/02/22 12:56:38;;;;;;;;;;;17.40;99.90;;;;;;5055949;28;19916;-79
2022/02/22 12:59:05;;;;;;;;;;;17.90;99.90;;;;;;5074025;28;20369;-81
2022/02/22 13:01:34;;;;;;;;;;;18.80;99.90;;;;;;5074008;28;19916;-78
2022/02/22 13:04:00;;;;;;;;;;;18.10;99.90;;;;;;5074092;28;19912;-78
2022/02/22 13:06:26;;;;;;;;;;;21.00;99.90;;;;;;5073851;28;19913;-78
2022/02/22 13:08:51;;;;;;;;;;;24.60;99.30;;;;;;5056276;28;20380;-79
2022/02/22 13:11:17;;;;;;;;;;;25.20;91.20;;;;;;5074093;28;20386;-79
2022/02/22 13:13:43;;;;;;;;;;;27.80;81.70;;;;;;5056194;28;19958;-76
2022/02/22 13:16:12;;;;;;;;;;;28.20;76.10;;;;;;5056149;28;19920;-76
2022/02/22 13:18:49;;;;;;;;;;;27.70;72.60;;;;;;5074124;28;19987;-77
2022/02/22 13:21:17;;;;;;;;;;;25.80;71.40;;;;;;5074375;28;19908;-77
2022/02/22 13:23:43;;;;;;;;;;;26.00;70.50;;;;;;5056138;28;20003;-77
2022/02/22 13:26:09;;;;;;;;;;;25.50;69.30;;;;;;5074185;28;20403;-77
2022/02/22 13:28:36;;;;;;;;;;;26.80;67.70;;;;;;5073930;28;19995;-78
2022/02/22 13:31:21;;;;;;;;;;;27.40;67.60;;;;;;5074565;28;20326;-76
2022/02/22 13:34:00;;;;;;;;;;;26.20;65.70;;;;;;5056042;28;19916;-77
2022/02/22 13:36:26;;;;;;;;;;;26.20;65.00;;;;;;5073852;28;20261;-77
2022/02/22 13:38:56;;;;;;;;;;;25.60;65.90;;;;;;5074029;28;19952;-76
2022/02/22 13:41:28;;;;;;;;;;;25.90;65.90;;;;;;5073863;28;19961;-76
2022/02/22 13:43:54;;;;;;;;;;;25.90;66.20;;;;;;5074122;28;19915;-76
2022/02/22 13:46:26;;;;;;;;;;;25.80;68.00;;;;;;5055715;28;19909;-75
2022/02/22 13:48:56;;;;;;;;;;;26.90;67.50;;;;;;5073854;28;20352;-75
2022/02/22 13:51:22;;;;;;;;;;;27.10;66.10;;;;;;5073787;28;20363;-76
2022/02/22 13:53:49;;;;;;;;;;;27.90;62.70;;;;;;5073701;28;19994;-77
2022/02/22 13:56:14;;;;;;;;;;;27.90;62.90;;;;;;5055631;28;19908;-77
2022/02/22 13:58:40;;;;;;;;;;;26.20;60.80;;;;;;5055862;28;19915;-77
2022/02/22 14:01:09;;;;;;;;;;;22.90;66.10;;;;;;5074309;28;20369;-75
2022/02/22 14:03:34;;;;;;;;;;;21.90;70.00;;;;;;5055441;28;19956;-76
2022/02/22 14:06:04;;;;;;;;;;;24.90;67.80;;;;;;5073183;28;20396;-76
2022/02/22 14:08:30;;;;;;;;;;;26.70;66.20;;;;;;5073152;28;19916;-76
2022/02/22 14:10:55;;;;;;;;;;;24.80;63.80;;;;;;5073215;28;20369;-76
2022/02/22 14:13:22;;;;;;;;;;;23.20;68.90;;;;;;5073251;28;19909;-76
2022/02/22 14:15:47;;;;;;;;;;;22.90;68.80;;;;;;5073034;28;19916;-75
2022/02/22 14:18:13;;;;;;;;;;;21.60;69.30;;;;;;5073206;28;19970;-76
2022/02/22 14:20:39;;;;;;;;;;;20.60;73.30;;;;;;5073076;28;19958;-76